Time;durP1;ratioP1;P1;durP2;ratioP2;P2;SDS_P1;SDS_P2;PMS_P1;PMS_P2;Temp;Humidity;BMP_temperature;BMP_pressure;BME280_temperature;BME280_humidity;BME280_pressure;Samples;Min_cycle;Max_cycle;Signal;HPM_P1;HPM_P2
2021/10/01 00:02:32;;;;;;;27.00;16.58;;;;;;;4.34;75.59;101091.47;254043;1107;114826;-66
2021/10/01 00:07:36;;;;;;;21.80;14.30;;;;;;;4.28;75.48;101092.94;253377;1107;115107;-65
2021/10/01 00:12:40;;;;;;;22.13;12.83;;;;;;;4.19;75.93;101085.17;253605;1107;115099;-65
2021/10/01 00:17:44;;;;;;;20.25;14.38;;;;;;;4.14;75.70;101079.55;253524;1107;115598;-66
2021/10/01 00:22:49;;;;;;;16.73;13.43;;;;;;;4.10;76.78;101071.12;254674;1107;115836;-67
2021/10/01 00:27:54;;;;;;;17.65;11.93;;;;;;;4.03;76.39;101072.73;253699;1107;115667;-66
2021/10/01 00:32:59;;;;;;;24.80;13.40;;;;;;;4.00;76.04;101073.88;254480;1107;116168;-66
2021/10/01 00:38:03;;;;;;;24.15;13.60;;;;;;;3.96;76.29;101071.74;254568;1102;115709;-66
2021/10/01 00:43:06;;;;;;;29.78;15.28;;;;;;;3.97;76.91;101062.84;254271;1107;115509;-66
2021/10/01 00:48:10;;;;;;;22.23;13.55;;;;;;;3.94;76.20;101063.98;254412;1107;116448;-67
2021/10/01 00:53:14;;;;;;;19.73;12.75;;;;;;;3.89;76.03;101066.27;254650;1107;115921;-65
2021/10/01 00:58:18;;;;;;;18.53;11.98;;;;;;;3.81;76.64;101071.50;254580;1107;115000;-68
2021/10/01 01:03:21;;;;;;;16.60;12.48;;;;;;;3.79;76.24;101070.00;255186;1107;115394;-69
2021/10/01 01:08:32;;;;;;;16.45;11.40;;;;;;;3.78;76.59;101063.91;255407;1107;115915;-66
2021/10/01 01:13:39;;;;;;;21.10;11.83;;;;;;;3.80;76.33;101071.66;254013;1107;116054;-66
2021/10/01 01:18:50;;;;;;;20.33;12.78;;;;;;;3.79;76.43;101077.91;254745;1107;115248;-66
2021/10/01 01:24:19;;;;;;;16.70;12.30;;;;;;;3.68;76.61;101071.92;256181;1107;115567;-66
2021/10/01 01:29:28;;;;;;;;;;;;;;;3.67;76.17;101075.55;253641;1107;114970;-66
2021/10/01 01:34:37;;;;;;;23.45;15.05;;;;;;;3.69;76.15;101075.39;256206;1107;103474;-66
2021/10/01 01:39:42;;;;;;;26.65;16.90;;;;;;;3.66;76.93;101073.09;254156;1101;115711;-65
2021/10/01 01:44:47;;;;;;;20.38;14.20;;;;;;;3.63;76.92;101068.95;253600;1107;115332;-65
2021/10/01 01:49:51;;;;;;;27.73;16.13;;;;;;;3.52;76.51;101074.48;254422;1107;114891;-67
2021/10/01 01:54:57;;;;;;;28.33;18.73;;;;;;;3.47;76.35;101068.85;255102;1107;114769;-68
2021/10/01 02:00:01;;;;;;;26.28;17.80;;;;;;;3.40;76.97;101070.45;253962;1107;116132;-65
2021/10/01 02:05:06;;;;;;;22.40;15.25;;;;;;;3.32;77.16;101068.61;253671;1107;115748;-65
2021/10/01 02:10:12;;;;;;;32.23;18.90;;;;;;;3.29;76.49;101060.19;254391;1107;115999;-65
2021/10/01 02:15:19;;;;;;;24.63;17.70;;;;;;;3.28;77.14;101069.91;253703;1107;115934;-67
2021/10/01 02:20:24;;;;;;;26.93;16.43;;;;;;;3.32;78.05;101063.34;254040;1107;115769;-65
2021/10/01 02:30:53;;;;;;;29.83;19.20;;;;;;;3.44;78.09;101069.16;253969;1107;116097;-67
2021/10/01 02:35:58;;;;;;;24.80;16.88;;;;;;;3.39;77.11;101066.98;253756;1107;116435;-67
2021/10/01 02:41:01;;;;;;;26.45;17.60;;;;;;;3.37;78.00;101068.95;255388;1107;115857;-68
2021/10/01 02:46:04;;;;;;;23.63;16.78;;;;;;;3.33;77.32;101072.08;254900;1107;116519;-66
2021/10/01 02:51:15;;;;;;;29.63;21.53;;;;;;;3.26;77.28;101068.41;254657;1107;116821;-68
2021/10/01 02:56:52;;;;;;;32.80;19.38;;;;;;;3.24;77.29;101073.00;253971;1107;116416;-65
2021/10/01 03:01:59;;;;;;;31.98;18.88;;;;;;;3.20;77.00;101075.11;254183;1107;116661;-65
2021/10/01 03:07:05;;;;;;;30.40;18.33;;;;;;;3.18;77.63;101065.70;254267;1107;115005;-66
2021/10/01 03:12:10;;;;;;;31.58;18.53;;;;;;;3.13;77.43;101065.33;256105;1107;115026;-67
2021/10/01 03:17:14;;;;;;;32.38;20.50;;;;;;;3.11;77.54;101064.66;254545;1107;115796;-66
2021/10/01 03:22:19;;;;;;;33.03;19.23;;;;;;;3.08;77.35;101071.06;255791;1107;116109;-66
2021/10/01 03:27:24;;;;;;;29.25;19.95;;;;;;;3.07;77.45;101063.31;256059;1107;115661;-66
2021/10/01 03:32:30;;;;;;;18.43;13.28;;;;;;;2.95;77.18;101063.58;254103;1107;116403;-66
2021/10/01 03:37:34;;;;;;;20.93;17.65;;;;;;;2.92;77.37;101055.98;255381;1101;115644;-66
2021/10/01 03:42:38;;;;;;;26.15;18.40;;;;;;;2.94;77.16;101056.65;254379;1107;116573;-66
2021/10/01 03:47:44;;;;;;;;;;;;;;;2.97;77.46;101052.89;255018;1107;115241;-66
2021/10/01 03:52:50;;;;;;;38.50;21.65;;;;;;;2.93;78.12;101047.09;255870;1107;103160;-66
2021/10/01 03:57:54;;;;;;;51.55;28.30;;;;;;;2.91;78.25;101051.69;253605;1107;115024;-65
2021/10/01 04:02:59;;;;;;;35.48;20.10;;;;;;;2.83;78.32;101056.05;253914;1102;114934;-65
2021/10/01 04:08:11;;;;;;;25.45;18.53;;;;;;;2.78;78.54;101051.23;253909;1107;115235;-66
2021/10/01 04:13:15;;;;;;;31.00;18.23;;;;;;;2.73;78.29;101050.06;253872;1107;115201;-66
2021/10/01 04:18:19;;;;;;;33.10;20.55;;;;;;;2.75;77.59;101037.58;253673;1107;115188;-66
2021/10/01 04:23:23;;;;;;;34.70;21.10;;;;;;;2.77;78.41;101046.95;253519;1107;115659;-65
2021/10/01 04:28:26;;;;;;;22.28;16.95;;;;;;;2.71;78.54;101042.31;254532;1107;114876;-65
2021/10/01 04:33:33;;;;;;;28.45;19.15;;;;;;;2.71;78.16;101044.95;254500;1107;115058;-65
2021/10/01 04:38:40;;;;;;;32.38;18.78;;;;;;;2.76;78.52;101045.30;253455;1107;114874;-64
2021/10/01 04:43:43;;;;;;;33.57;22.27;;;;;;;2.79;78.28;101044.99;253939;1102;115930;-65
2021/10/01 04:48:47;;;;;;;24.13;16.33;;;;;;;2.72;77.92;101033.44;254393;1107;115470;-66
2021/10/01 04:53:50;;;;;;;23.95;17.88;;;;;;;2.65;77.78;101049.01;254177;1107;115351;-65
2021/10/01 04:58:54;;;;;;;25.18;17.05;;;;;;;2.61;78.77;101052.92;254937;1103;115848;-66
2021/10/01 05:03:58;;;;;;;31.55;19.00;;;;;;;2.62;78.40;101046.67;254220;1106;115603;-66
2021/10/01 05:09:01;;;;;;;33.58;21.58;;;;;;;2.66;77.85;101042.77;255537;1107;115495;-67
2021/10/01 05:14:05;;;;;;;19.20;15.40;;;;;;;2.72;78.51;101043.97;256219;1107;115235;-65
2021/10/01 05:19:08;;;;;;;29.20;17.38;;;;;;;2.75;78.35;101048.94;256235;1107;115150;-65
2021/10/01 05:24:14;;;;;;;23.15;14.78;;;;;;;2.79;78.92;101044.99;256084;1107;115325;-66
2021/10/01 05:29:18;;;;;;;30.80;22.85;;;;;;;2.88;78.87;101046.72;253936;1107;116345;-66
2021/10/01 05:34:24;;;;;;;38.43;21.48;;;;;;;3.02;79.25;101051.45;255363;1107;116212;-66
2021/10/01 05:39:33;;;;;;;28.63;21.23;;;;;;;3.21;79.68;101060.13;254378;1107;116775;-65
2021/10/01 05:44:41;;;;;;;35.28;21.45;;;;;;;3.36;79.06;101059.39;254474;1107;116372;-67
2021/10/01 05:49:49;;;;;;;;;;;;;;;3.53;78.92;101049.78;254655;1107;116513;-66
2021/10/01 05:54:53;;;;;;;40.23;23.18;;;;;;;3.75;79.89;101055.48;255993;1107;102978;-67
2021/10/01 05:59:58;;;;;;;42.73;23.65;;;;;;;3.94;80.46;101049.97;254944;1107;114927;-66
2021/10/01 06:05:03;;;;;;;39.60;25.20;;;;;;;4.18;79.74;101050.03;254801;1107;115631;-67
2021/10/01 06:10:11;;;;;;;45.78;22.90;;;;;;;4.43;80.08;101050.08;254173;1107;115515;-66
2021/10/01 06:15:17;;;;;;;31.88;23.40;;;;;;;4.65;80.51;101055.55;254352;1107;116204;-66
2021/10/01 06:20:23;;;;;;;32.98;23.33;;;;;;;4.86;80.59;101048.97;253948;1107;115656;-66
2021/10/01 06:25:28;;;;;;;26.75;21.05;;;;;;;5.15;80.49;101040.52;253673;1107;115368;-67
2021/10/01 06:30:33;;;;;;;34.98;18.93;;;;;;;5.44;80.80;101038.14;255193;1107;115281;-67
2021/10/01 06:35:38;;;;;;;24.95;19.55;;;;;;;5.78;81.22;101032.58;255699;1107;115556;-67
2021/10/01 06:40:42;;;;;;;19.88;15.85;;;;;;;6.31;81.31;101030.99;255117;1107;115598;-68
2021/10/01 06:45:51;;;;;;;29.90;17.27;;;;;;;6.78;81.48;101029.98;253478;1107;116395;-66
2021/10/01 08:22:08;;;;;;;12.85;5.08;;;;;;;13.08;75.83;101039.23;254039;1101;115912;-68
2021/10/01 08:27:16;;;;;;;13.20;6.63;;;;;;;13.37;75.65;101034.26;254292;1107;115886;-68
2021/10/01 08:32:21;;;;;;;8.23;4.78;;;;;;;13.71;75.27;101036.37;254467;1103;115668;-70
2021/10/01 08:37:24;;;;;;;3.95;3.18;;;;;;;14.05;74.61;101026.06;254783;1103;115549;-68
2021/10/01 08:42:33;;;;;;;6.85;4.78;;;;;;;14.36;73.73;101031.21;254391;1103;115682;-70
2021/10/01 08:47:37;;;;;;;13.08;5.33;;;;;;;14.54;72.62;101024.16;253345;1103;117021;-70
2021/10/01 08:52:42;;;;;;;7.15;4.93;;;;;;;14.72;72.03;101022.21;253417;1107;115790;-69
2021/10/01 08:57:46;;;;;;;12.57;5.50;;;;;;;15.02;72.10;101022.13;254204;1107;115209;-67
2021/10/01 09:02:50;;;;;;;9.83;5.35;;;;;;;15.24;71.14;101018.89;255725;1107;115296;-68
2021/10/01 09:07:54;;;;;;;14.63;6.17;;;;;;;15.50;70.44;101021.08;253487;1107;115537;-70
2021/10/01 09:12:58;;;;;;;11.15;7.15;;;;;;;15.68;70.38;101020.95;256212;1107;115728;-68
2021/10/01 09:18:01;;;;;;;8.85;5.33;;;;;;;15.89;69.97;101022.20;256183;1107;115969;-70
2021/10/01 09:23:18;;;;;;;8.75;4.40;;;;;;;16.25;69.42;101012.11;255702;1103;115742;-69
2021/10/01 09:28:22;;;;;;;7.50;3.38;;;;;;;16.60;68.59;101012.75;255189;1107;115327;-69
2021/10/01 09:33:27;;;;;;;2.53;2.30;;;;;;;16.97;67.47;101006.91;254012;1107;115634;-68
2021/10/01 09:38:36;;;;;;;1.88;1.70;;;;;;;17.17;66.25;101002.64;253461;1107;114851;-68
2021/10/01 09:43:40;;;;;;;3.30;1.85;;;;;;;17.31;66.46;100991.52;254740;1107;116163;-68
2021/10/01 09:48:57;;;;;;;3.33;1.53;;;;;;;17.58;65.01;100997.81;254092;1107;207597;-69
2021/10/01 09:54:10;;;;;;;1.80;1.68;;;;;;;17.91;64.46;100985.29;254848;1107;115577;-69
2021/10/01 09:59:25;;;;;;;1.65;1.55;;;;;;;18.00;63.08;100986.48;254864;1107;114945;-69
2021/10/01 10:04:44;;;;;;;5.98;1.73;;;;;;;18.13;62.54;100991.46;253811;1107;115853;-68
2021/10/01 10:09:54;;;;;;;2.05;1.30;;;;;;;18.17;60.97;100995.28;254748;1107;115893;-70
2021/10/01 10:15:09;;;;;;;6.33;1.08;;;;;;;18.39;60.75;100985.23;253539;1103;116170;-70
2021/10/01 10:20:19;;;;;;;1.18;1.18;;;;;;;18.54;59.74;100979.17;254139;1107;115624;-70
2021/10/01 10:25:23;;;;;;;1.67;1.10;;;;;;;18.51;59.17;100974.28;253718;1107;115195;-69
2021/10/01 10:30:31;;;;;;;4.80;1.95;;;;;;;18.67;58.98;100972.55;253714;1107;116080;-68
2021/10/01 10:35:43;;;;;;;2.98;1.63;;;;;;;18.86;58.64;100965.68;254124;1107;115964;-71
2021/10/01 10:40:48;;;;;;;3.25;1.60;;;;;;;18.83;57.05;100958.91;253548;1107;115277;-70
2021/10/01 10:45:53;;;;;;;2.60;1.50;;;;;;;18.93;56.74;100960.88;254487;1107;115779;-70
2021/10/01 10:50:58;;;;;;;2.73;1.15;;;;;;;19.23;56.47;100960.24;254325;1107;115406;-70
2021/10/01 10:56:06;;;;;;;3.50;2.17;;;;;;;19.10;55.59;100955.29;253561;1107;115793;-70
2021/10/01 11:01:13;;;;;;;2.68;1.60;;;;;;;19.20;56.23;100938.33;253676;1107;115418;-70
2021/10/01 11:06:23;;;;;;;9.23;2.00;;;;;;;18.95;55.13;100947.11;254333;1107;115710;-69
2021/10/01 11:11:36;;;;;;;2.05;1.38;;;;;;;18.63;54.93;100930.95;255660;1107;115475;-69
2021/10/01 11:16:40;;;;;;;4.33;2.30;;;;;;;18.34;55.14;100927.72;254931;1107;116137;-69
2021/10/01 11:21:46;;;;;;;3.65;2.15;;;;;;;18.59;55.79;100919.81;256054;1107;116025;-69
2021/10/01 11:26:59;;;;;;;3.40;1.65;;;;;;;18.86;55.33;100911.65;253577;1107;116080;-69
2021/10/01 11:32:26;;;;;;;5.33;2.43;;;;;;;18.90;54.27;100903.84;255295;1107;116250;-69
2021/10/01 11:37:39;;;;;;;4.10;2.25;;;;;;;18.73;53.75;100895.88;256185;1107;117596;-69
2021/10/01 11:42:46;;;;;;;2.45;1.80;;;;;;;18.80;53.31;100885.67;253684;1107;115148;-70
2021/10/01 11:48:12;;;;;;;3.43;2.43;;;;;;;18.93;53.43;100884.41;255414;1107;115665;-68
2021/10/01 11:53:30;;;;;;;2.54;1.78;;;;;;;18.96;52.70;100889.26;254158;1107;114829;-68
2021/10/01 11:58:37;;;;;;;2.90;1.90;;;;;;;19.00;51.99;100874.15;255036;1107;115577;-68
2021/10/01 12:03:49;;;;;;;3.95;1.53;;;;;;;19.11;51.91;100875.84;254722;1107;115233;-68
2021/10/01 12:08:58;;;;;;;5.55;1.83;;;;;;;19.12;51.48;100872.88;254283;1107;115260;-69
2021/10/01 12:14:28;;;;;;;3.10;2.03;;;;;;;19.08;51.44;100860.14;253694;1107;114942;-68
2021/10/01 12:19:34;;;;;;;2.75;1.68;;;;;;;19.02;50.87;100859.30;253431;1103;117322;-70
2021/10/01 12:24:42;;;;;;;4.13;1.75;;;;;;;18.94;51.58;100851.72;253525;1107;116106;-70
2021/10/01 12:29:51;;;;;;;3.58;1.78;;;;;;;18.95;51.34;100845.24;253589;1107;116169;-69
2021/10/01 12:34:59;;;;;;;3.40;1.93;;;;;;;18.75;50.51;100837.83;253559;1107;115864;-69
2021/10/01 12:40:04;;;;;;;3.50;2.33;;;;;;;18.65;51.01;100828.88;253720;1102;117359;-69
2021/10/01 12:45:20;;;;;;;6.45;1.98;;;;;;;18.76;51.02;100819.73;253585;1107;115754;-71
2021/10/01 12:50:33;;;;;;;1.73;1.63;;;;;;;18.72;51.55;100807.83;253626;1103;116073;-69
2021/10/01 12:55:41;;;;;;;2.40;2.00;;;;;;;18.80;50.96;100807.33;253557;1107;115849;-70
2021/10/01 13:01:18;;;;;;;2.60;1.50;;;;;;;18.74;50.70;100811.08;253357;1101;116937;-69
2021/10/01 13:06:31;;;;;;;2.85;1.93;;;;;;;18.54;50.08;100792.05;254184;1107;115669;-69
2021/10/01 13:11:50;;;;;;;3.43;1.70;;;;;;;18.40;50.15;100783.58;253514;1107;116382;-69
2021/10/01 13:16:53;;;;;;;2.73;1.50;;;;;;;18.35;49.63;100781.66;255173;1103;116340;-69
2021/10/01 13:21:57;;;;;;;1.53;1.27;;;;;;;18.35;49.99;100778.96;256216;1107;115036;-68
2021/10/01 13:27:11;;;;;;;1.83;1.40;;;;;;;18.42;49.54;100776.84;256221;1107;115355;-67
2021/10/01 13:32:16;;;;;;;3.30;1.70;;;;;;;18.33;48.98;100767.64;254679;1107;115554;-66
2021/10/01 13:37:20;;;;;;;2.98;2.35;;;;;;;18.36;49.02;100756.30;256321;1107;115803;-68
2021/10/01 13:42:23;;;;;;;2.43;2.00;;;;;;;18.27;48.93;100755.18;255536;1103;116073;-68
2021/10/01 13:47:35;;;;;;;2.60;2.33;;;;;;;18.14;48.69;100751.04;256070;1107;114989;-68
2021/10/01 13:52:49;;;;;;;4.07;1.80;;;;;;;17.96;49.02;100750.66;253743;1107;115064;-67
2021/10/01 13:57:55;;;;;;;6.05;2.93;;;;;;;17.78;48.99;100749.96;255169;1107;115359;-67
2021/10/01 14:03:04;;;;;;;6.30;2.83;;;;;;;17.71;48.90;100746.69;255424;1107;115530;-68
2021/10/01 14:08:16;;;;;;;2.83;2.25;;;;;;;17.69;49.27;100738.05;254009;1107;116565;-68
2021/10/01 14:13:25;;;;;;;2.88;2.10;;;;;;;17.66;49.86;100727.77;253438;1103;116287;-70
2021/10/01 14:18:41;;;;;;;5.93;2.58;;;;;;;17.51;49.83;100724.89;253698;1107;116699;-69
2021/10/01 14:23:46;;;;;;;8.28;3.15;;;;;;;17.24;49.84;100721.41;253276;1107;117879;-69
2021/10/01 14:28:50;;;;;;;3.65;2.43;;;;;;;17.17;50.25;100727.81;253192;1107;117060;-70
2021/10/01 14:33:54;;;;;;;4.08;2.80;;;;;;;17.15;50.55;100721.05;253464;1107;116146;-69
2021/10/01 14:38:57;;;;;;;4.15;2.40;;;;;;;17.07;50.35;100716.14;253084;1107;115970;-69
2021/10/01 14:44:01;;;;;;;3.48;3.00;;;;;;;16.87;50.29;100714.02;253335;1107;117800;-69
2021/10/01 14:49:08;;;;;;;3.73;2.63;;;;;;;16.61;50.53;100709.38;253733;1107;116459;-70
2021/10/01 14:54:12;;;;;;;2.00;1.60;;;;;;;16.41;50.45;100708.06;254642;1107;115939;-69
2021/10/01 14:59:18;;;;;;;8.30;3.00;;;;;;;16.30;50.55;100695.53;253858;1101;115772;-69
2021/10/01 15:04:22;;;;;;;5.18;2.58;;;;;;;16.27;50.99;100701.41;253809;1107;116278;-68
2021/10/01 15:09:34;;;;;;;2.65;2.43;;;;;;;16.21;51.05;100696.20;253462;1107;115752;-71
2021/10/01 15:14:40;;;;;;;3.18;2.65;;;;;;;16.02;51.05;100699.18;256183;1107;115855;-70
2021/10/01 15:19:45;;;;;;;3.22;2.92;;;;;;;15.89;51.17;100696.03;253856;1107;115975;-70
2021/10/01 15:24:48;;;;;;;7.70;3.15;;;;;;;15.72;51.31;100694.16;254018;1107;116660;-69
2021/10/01 15:30:04;;;;;;;5.80;2.83;;;;;;;15.51;51.29;100697.56;255115;1107;222949;-69
2021/10/01 15:35:08;;;;;;;8.60;5.88;;;;;;;15.30;52.17;100701.75;255770;1107;117838;-70
2021/10/01 15:40:15;;;;;;;7.68;3.25;;;;;;;15.13;51.98;100698.23;256307;1106;116829;-69
2021/10/01 15:45:28;;;;;;;3.93;3.10;;;;;;;14.92;52.47;100698.92;256198;1107;116323;-69
2021/10/01 15:50:32;;;;;;;6.23;5.10;;;;;;;14.72;52.75;100708.19;253581;1107;116067;-67
2021/10/01 15:55:38;;;;;;;4.50;3.60;;;;;;;14.53;53.13;100706.74;254985;1107;115187;-69
2021/10/01 16:00:44;;;;;;;8.57;4.47;;;;;;;14.32;54.36;100710.84;254133;1107;115880;-67
2021/10/01 16:05:50;;;;;;;6.53;5.05;;;;;;;14.14;54.67;100697.55;255177;1107;115647;-67
2021/10/01 16:10:55;;;;;;;12.73;5.95;;;;;;;13.94;55.30;100697.11;254951;1103;115745;-69
2021/10/01 16:16:03;;;;;;;9.03;6.03;;;;;;;13.71;55.25;100689.88;254110;1107;116083;-67
2021/10/01 16:21:08;;;;;;;11.53;5.50;;;;;;;13.50;56.05;100691.23;253573;1101;115391;-67
2021/10/01 16:26:13;;;;;;;7.60;6.50;;;;;;;13.31;56.21;100689.69;254639;1107;116207;-67
2021/10/01 16:31:21;;;;;;;10.88;6.63;;;;;;;13.10;56.86;100696.36;253925;1107;115119;-68
2021/10/01 16:36:28;;;;;;;11.38;8.00;;;;;;;12.94;57.38;100686.28;253730;1107;115690;-67
2021/10/01 16:41:36;;;;;;;11.18;7.63;;;;;;;12.74;58.52;100681.20;253545;1107;116635;-68
2021/10/01 16:46:44;;;;;;;8.18;6.13;;;;;;;12.50;58.68;100680.27;253803;1107;116598;-68
2021/10/01 16:51:52;;;;;;;14.93;6.87;;;;;;;12.29;58.77;100673.50;253712;1107;116293;-71
2021/10/01 16:57:00;;;;;;;7.83;6.78;;;;;;;12.14;59.93;100673.07;253404;1107;115243;-68
2021/10/01 17:02:06;;;;;;;11.63;7.08;;;;;;;12.03;59.90;100676.47;253774;1107;115273;-68
2021/10/01 17:07:11;;;;;;;13.48;8.28;;;;;;;11.96;60.30;100671.18;254099;1107;115666;-69
2021/10/01 17:12:15;;;;;;;12.45;8.80;;;;;;;11.93;60.56;100673.47;254866;1107;115222;-68
2021/10/01 17:17:22;;;;;;;14.93;10.95;;;;;;;11.86;61.23;100670.89;254108;1107;115916;-67
2021/10/01 17:22:31;;;;;;;17.70;11.48;;;;;;;11.78;61.35;100671.16;255327;1107;115256;-67
2021/10/01 17:27:35;;;;;;;23.23;12.93;;;;;;;11.70;61.48;100664.20;255634;1106;118210;-68
2021/10/01 17:32:41;;;;;;;30.05;12.58;;;;;;;11.64;61.83;100658.92;254291;1107;116318;-68
2021/10/01 17:37:50;;;;;;;14.73;10.10;;;;;;;11.58;62.42;100649.14;256203;1107;115553;-68
2021/10/01 17:42:56;;;;;;;20.70;10.65;;;;;;;11.59;62.83;100651.59;256306;1106;115744;-68
2021/10/01 17:48:05;;;;;;;16.03;11.18;;;;;;;11.59;62.60;100640.91;254858;1107;115782;-68
2021/10/01 17:53:13;;;;;;;22.00;11.95;;;;;;;11.60;63.16;100634.53;256248;1107;115450;-68
2021/10/01 17:58:18;;;;;;;16.83;13.65;;;;;;;11.55;63.42;100631.70;256104;1107;116221;-68
2021/10/01 18:03:22;;;;;;;18.45;11.90;;;;;;;11.52;63.58;100634.80;255634;1103;115789;-68
2021/10/01 18:08:27;;;;;;;17.05;11.90;;;;;;;11.47;63.88;100634.64;254989;1107;115296;-67
2021/10/01 18:13:32;;;;;;;18.05;11.98;;;;;;;11.42;63.94;100621.12;253733;1107;115878;-67
2021/10/01 18:18:37;;;;;;;23.55;14.85;;;;;;;11.42;64.01;100623.80;253447;1103;115417;-68
2021/10/01 18:23:44;;;;;;;18.35;12.50;;;;;;;11.42;63.83;100623.80;253640;1107;115556;-68
2021/10/01 18:28:48;;;;;;;25.50;14.50;;;;;;;11.36;64.73;100628.14;254300;1107;115448;-68
2021/10/01 18:33:54;;;;;;;17.73;13.13;;;;;;;11.30;64.61;100630.89;253145;1107;115553;-68
2021/10/01 18:38:58;;;;;;;17.90;14.55;;;;;;;11.20;64.99;100620.69;253463;1107;116084;-68
2021/10/01 18:44:03;;;;;;;19.28;13.40;;;;;;;11.10;65.10;100615.83;254233;1107;115913;-68
2021/10/01 18:49:07;;;;;;;15.18;13.48;;;;;;;11.09;65.40;100611.52;253457;1103;116923;-68
2021/10/01 18:54:10;;;;;;;20.13;14.23;;;;;;;11.11;65.84;100611.31;254480;1101;115782;-68
2021/10/01 18:59:15;;;;;;;22.37;14.40;;;;;;;11.05;65.84;100596.98;253819;1107;115889;-68
2021/10/01 19:04:28;;;;;;;17.78;13.80;;;;;;;10.97;65.93;100599.94;253944;1107;115642;-67
2021/10/01 19:09:33;;;;;;;16.83;12.30;;;;;;;10.87;66.27;100596.09;253677;1107;115659;-68
2021/10/01 19:14:39;;;;;;;14.23;11.25;;;;;;;10.74;66.74;100588.98;254764;1107;117097;-68
2021/10/01 19:19:46;;;;;;;19.03;13.38;;;;;;;10.72;66.39;100588.38;253884;1102;116403;-69
2021/10/01 19:30:36;;;;;;;16.45;13.58;;;;;;;10.71;66.91;100574.23;252205;1107;116116;-68
2021/10/01 19:35:39;;;;;;;19.18;13.88;;;;;;;10.66;67.18;100576.75;254793;1107;116435;-68
2021/10/01 19:40:42;;;;;;;18.50;13.43;;;;;;;10.62;67.34;100570.20;254472;1107;116141;-68
2021/10/01 19:45:45;;;;;;;14.05;10.90;;;;;;;10.54;67.46;100569.64;254706;1107;115421;-67
2021/10/01 19:51:03;;;;;;;14.90;12.43;;;;;;;10.55;67.61;100568.61;256278;1107;115056;-68
2021/10/01 19:56:18;;;;;;;15.17;12.37;;;;;;;10.59;67.51;100562.64;256246;1107;117599;-68
2021/10/01 20:01:28;;;;;;;20.58;14.05;;;;;;;10.58;67.88;100562.84;255286;1107;116400;-68
2021/10/01 20:06:34;;;;;;;20.20;11.73;;;;;;;10.55;67.71;100560.61;253759;1107;116147;-68
2021/10/01 20:11:38;;;;;;;21.30;13.70;;;;;;;10.49;68.22;100545.47;253979;1101;116167;-68
2021/10/01 20:16:43;;;;;;;22.28;14.33;;;;;;;10.47;68.04;100543.02;256134;1106;115453;-68
2021/10/01 20:21:54;;;;;;;15.13;12.40;;;;;;;10.44;67.99;100544.25;254015;1107;115834;-67
2021/10/01 20:48:50;;;;;;;18.98;13.43;;;;;;;10.20;68.57;100518.36;253714;1103;115992;-67
2021/10/01 20:53:53;;;;;;;20.45;13.03;;;;;;;10.15;69.30;100520.81;254099;1107;116052;-66
2021/10/01 21:41:40;;;;;;;20.65;13.30;;;;;;;9.70;70.21;100482.72;256157;1107;115755;-67
2021/10/01 21:51:51;;;;;;;19.10;12.93;;;;;;;9.66;70.40;100470.84;256147;1107;115172;-67
2021/10/01 21:56:55;;;;;;;23.90;14.15;;;;;;;9.67;70.56;100464.50;256264;1107;115592;-67
2021/10/01 22:01:59;;;;;;;20.00;14.00;;;;;;;9.63;70.17;100452.63;256079;1107;115552;-68
2021/10/01 22:12:41;;;;;;;16.90;12.07;;;;;;;9.51;70.46;100454.30;254989;1107;116053;-67
2021/10/01 22:23:12;;;;;;;20.05;14.43;;;;;;;9.41;70.99;100449.45;254462;1103;116528;-67
2021/10/01 22:28:22;;;;;;;18.90;12.50;;;;;;;9.31;71.61;100441.89;253506;1108;116041;-67
2021/10/01 22:33:27;;;;;;;18.17;12.80;;;;;;;9.25;71.15;100439.23;253793;1103;115687;-69
2021/10/01 22:38:33;;;;;;;23.37;14.13;;;;;;;9.21;71.70;100422.06;254456;1107;116946;-69
2021/10/01 22:43:43;;;;;;;20.05;13.88;;;;;;;9.17;72.08;100419.03;253816;1107;115936;-69
2021/10/01 22:48:49;;;;;;;14.05;11.13;;;;;;;9.15;72.47;100417.59;253570;1107;116064;-67
2021/10/01 22:53:54;;;;;;;16.13;10.90;;;;;;;9.13;72.19;100415.15;254152;1107;116200;-67
2021/10/01 22:58:57;;;;;;;14.13;10.43;;;;;;;9.13;72.13;100411.67;253525;1107;115586;-67
2021/10/01 23:04:01;;;;;;;13.80;11.48;;;;;;;9.09;72.04;100403.28;254814;1107;115653;-67
2021/10/01 23:09:04;;;;;;;15.60;10.55;;;;;;;9.02;73.07;100403.30;254329;1107;116005;-67
2021/10/01 23:52:15;;;;;;;14.80;10.40;;;;;;;8.65;73.78;100356.94;253249;1107;115877;-66
